Amasa, Michigan
Current Conditions -  °F | °C
As of 4:54 AM on Monday 22 Dec 2014 (Local Time) from KIMT Reporting Station
Haze Haze  
Wind Chill: 25°   Ceiling: 900
Heat Index: 33°   Visibility: 5mi
Dew Point: 30°   Wind: 9mph
Humidity: 89%   Direction: 150°SSE
Pressure: 29.88"   Gusts: NA
Location:  46.23°N, 88.45°W
Report Text: KIMT 221054Z AUTO 15008KT 5SM BR OVC009 01/M01 A2988 RMK AO2 SLP132 T00061011
Loading
Personal Weather Stations






























Interactive Weather Map New forecast layout! Learn more

10-Day Weather Forecast

Advertisements
Track Severe Weather on mobile